Time,TemperatureF,DewpointF,PressureIn,WindDirection,WindDirectionDegrees,WindSpeedMPH,WindSpeedGustMPH,Humidity,HourlyPrecipIn,Conditions,Clouds,dailyrainin,SoftwareType,DateUTC
2013-01-06 00:00:00,49.6,39.1,30.25,ENE,60,0.0,1.0,67,0.00,,---,0.00,VWS V14.00,2013-01-06 08:00:00,
2013-01-06 00:30:00,49.1,39.4,30.25,ENE,60,1.0,2.0,69,0.00,,---,0.00,VWS V14.00,2013-01-06 08:30:00,
2013-01-06 01:00:00,48.7,38.6,30.25,ENE,60,0.0,2.0,68,0.00,,---,0.00,VWS V14.00,2013-01-06 09:00:00,
2013-01-06 01:30:00,48.3,38.6,30.25,ENE,57,1.0,2.0,69,0.00,,---,0.00,VWS V14.00,2013-01-06 09:30:00,
2013-01-06 02:00:00,47.7,37.3,30.25,ENE,59,2.0,2.0,67,0.00,,---,0.00,VWS V14.00,2013-01-06 10:00:00,
2013-01-06 02:30:00,48.0,38.3,30.25,ENE,59,0.0,2.0,69,0.00,,---,0.00,VWS V14.00,2013-01-06 10:30:00,
2013-01-06 03:00:00,48.8,39.5,30.24,ENE,59,0.0,2.0,70,0.00,,---,0.00,VWS V14.00,2013-01-06 11:00:00,
2013-01-06 03:30:00,49.0,40.0,30.24,ENE,60,0.0,2.0,71,0.00,,---,0.00,VWS V14.00,2013-01-06 11:30:00,
2013-01-06 04:00:00,49.2,40.9,30.23,ENE,60,0.0,2.0,73,0.00,,---,0.00,VWS V14.00,2013-01-06 12:00:00,
2013-01-06 04:30:00,48.6,40.7,30.23,ENE,63,0.0,2.0,74,0.00,,---,0.00,VWS V14.00,2013-01-06 12:30:00,
2013-01-06 05:00:00,47.9,44.8,30.24,NE,44,0.0,2.0,89,0.03,,---,0.03,VWS V14.00,2013-01-06 13:00:00,
2013-01-06 05:30:00,48.1,45.9,30.25,NE,44,0.0,1.0,92,0.08,,---,0.08,VWS V14.00,2013-01-06 13:30:00,
2013-01-06 06:00:00,47.1,44.6,30.23,ENE,59,0.0,3.0,91,0.08,,---,0.08,VWS V14.00,2013-01-06 14:00:00,
2013-01-06 06:30:00,47.0,45.1,30.25,NE,42,0.0,3.0,93,0.05,,---,0.08,VWS V14.00,2013-01-06 14:30:00,
2013-01-06 07:00:00,46.7,44.8,30.25,NE,56,1.0,2.0,93,0.00,,---,0.08,VWS V14.00,2013-01-06 15:00:00,
2013-01-06 07:30:00,46.6,44.7,30.25,ENE,57,0.0,3.0,93,0.00,,---,0.08,VWS V14.00,2013-01-06 15:30:00,
2013-01-06 08:00:00,47.9,46.0,30.25,ENE,61,0.0,2.0,93,0.00,,---,0.08,VWS V14.00,2013-01-06 16:00:00,
2013-01-06 08:30:00,51.4,48.6,30.26,ENE,61,0.0,1.0,90,0.00,,---,0.08,VWS V14.00,2013-01-06 16:30:00,
2013-01-06 09:00:00,55.7,50.6,30.26,ENE,61,0.0,0.0,83,0.00,,---,0.08,VWS V14.00,2013-01-06 17:00:00,
2013-01-06 09:30:00,55.9,49.8,30.26,ENE,61,0.0,1.0,80,0.00,,---,0.08,VWS V14.00,2013-01-06 17:30:00,
2013-01-06 10:00:00,54.1,49.1,30.26,ENE,62,0.0,3.0,83,0.00,,---,0.08,VWS V14.00,2013-01-06 18:00:00,
2013-01-06 10:30:00,53.8,49.1,30.25,ENE,62,0.0,2.0,84,0.00,,---,0.08,VWS V14.00,2013-01-06 18:30:00,
2013-01-06 11:00:00,58.0,50.5,30.23,ENE,62,0.0,1.0,76,0.00,,---,0.08,VWS V14.00,2013-01-06 19:00:00,
2013-01-06 11:30:00,59.3,50.7,30.21,WNW,284,0.0,3.0,73,0.00,,---,0.08,VWS V14.00,2013-01-06 19:30:00,
2013-01-06 12:00:00,59.8,50.0,30.20,SW,233,0.0,2.0,70,0.00,,---,0.08,VWS V14.00,2013-01-06 20:00:00,
2013-01-06 12:30:00,60.6,50.8,30.19,ESE,109,0.0,3.0,70,0.00,,---,0.08,VWS V14.00,2013-01-06 20:30:00,
2013-01-06 13:00:00,57.3,47.6,30.18,WNW,296,3.0,7.0,70,0.00,,---,0.08,VWS V14.00,2013-01-06 21:00:00,
2013-01-06 13:30:00,58.4,47.9,30.17,West,277,6.0,7.0,68,0.00,,---,0.08,VWS V14.00,2013-01-06 21:30:00,
2013-01-06 14:00:00,58.2,49.6,30.16,East,89,1.0,7.0,73,0.00,,---,0.08,VWS V14.00,2013-01-06 22:00:00,
2013-01-06 14:30:00,56.2,49.4,30.15,NNE,29,1.0,6.0,78,0.01,,---,0.09,VWS V14.00,2013-01-06 22:30:00,
2013-01-06 15:00:00,56.7,48.2,30.15,West,277,3.0,10.0,73,0.01,,---,0.09,VWS V14.00,2013-01-06 23:00:00,
2013-01-06 15:30:00,55.7,46.8,30.15,WNW,284,8.0,11.0,72,0.01,,---,0.09,VWS V14.00,2013-01-06 23:30:00,
2013-01-06 16:00:00,54.6,46.5,30.15,West,275,6.0,12.0,74,0.00,,---,0.09,VWS V14.00,2013-01-07 00:00:00,
2013-01-06 16:30:00,53.9,46.2,30.13,WNW,290,3.0,9.0,75,0.00,,---,0.09,VWS V14.00,2013-01-07 00:30:00,
2013-01-06 17:00:00,53.6,46.9,30.13,West,274,3.0,9.0,78,0.00,,---,0.09,VWS V14.00,2013-01-07 01:00:00,
2013-01-06 17:30:00,52.3,46.3,30.12,WNW,302,0.0,9.0,80,0.00,,---,0.09,VWS V14.00,2013-01-07 01:30:00,
2013-01-06 18:00:00,52.0,47.6,30.12,WNW,303,0.0,1.0,85,0.08,,---,0.17,VWS V14.00,2013-01-07 02:00:00,
2013-01-06 18:30:00,51.3,48.5,30.11,WNW,303,0.0,0.0,90,0.15,,---,0.24,VWS V14.00,2013-01-07 02:30:00,
2013-01-06 19:00:00,50.7,48.2,30.10,WNW,303,0.0,1.0,91,0.15,,---,0.24,VWS V14.00,2013-01-07 03:00:00,
2013-01-06 19:30:00,50.1,47.9,30.10,NE,40,0.0,2.0,92,0.11,,---,0.28,VWS V14.00,2013-01-07 03:30:00,
2013-01-06 20:00:00,49.9,48.0,30.11,NE,52,0.0,2.0,93,0.08,,---,0.32,VWS V14.00,2013-01-07 04:00:00,
2013-01-06 20:30:00,49.7,47.8,30.09,NE,52,0.0,2.0,93,0.13,,---,0.37,VWS V14.00,2013-01-07 04:30:00,
2013-01-06 21:00:00,49.4,47.5,30.08,East,97,0.0,3.0,93,0.10,,---,0.38,VWS V14.00,2013-01-07 05:00:00,
2013-01-06 21:30:00,48.8,46.9,30.09,East,94,0.0,1.0,93,0.06,,---,0.38,VWS V14.00,2013-01-07 05:30:00,
2013-01-06 22:00:00,48.6,47.0,30.08,East,86,0.0,1.0,94,0.01,,---,0.38,VWS V14.00,2013-01-07 06:00:00,
2013-01-06 22:30:00,48.1,46.2,30.07,East,86,0.0,1.0,93,0.00,,---,0.38,VWS V14.00,2013-01-07 06:30:00,
2013-01-06 23:00:00,47.9,46.0,30.07,East,86,0.0,1.0,93,0.00,,---,0.38,VWS V14.00,2013-01-07 07:00:00,
2013-01-06 23:30:00,47.6,45.7,30.08,East,86,0.0,0.0,93,0.00,,---,0.38,VWS V14.00,2013-01-07 07:30:00,